Time;durP1;ratioP1;P1;durP2;ratioP2;P2;SDS_P1;SDS_P2;PMS_P1;PMS_P2;Temp;Humidity;BMP_temperature;BMP_pressure;BME280_temperature;BME280_humidity;BME280_pressure;Samples;Min_cycle;Max_cycle;Signal;HPM_P1;HPM_P2
2022/11/19 00:00:24;;;;;;;0.00;0.00;;;;;;;16.17;66.07;101345.03;2090619;28;20041;-70
2022/11/19 00:01:27;;;;;;;0.00;0.00;;;;;;;16.17;66.13;101355.94;2089247;28;20087;-69
2022/11/19 00:02:30;;;;;;;0.10;0.10;;;;;;;16.16;66.09;101336.06;2088938;28;20053;-71
2022/11/19 00:03:34;;;;;;;0.00;0.00;;;;;;;16.17;66.13;101347.75;2089492;28;20049;-70
2022/11/19 00:04:37;;;;;;;0.00;0.00;;;;;;;16.15;66.07;101353.56;2089454;28;20064;-71
2022/11/19 00:05:39;;;;;;;0.00;0.00;;;;;;;16.16;65.86;101362.50;2089692;28;20057;-71
2022/11/19 00:06:41;;;;;;;0.00;0.00;;;;;;;16.14;66.00;101357.44;2088835;28;20099;-70
2022/11/19 00:07:43;;;;;;;0.00;0.00;;;;;;;16.15;65.97;101358.22;2093344;28;20045;-71
2022/11/19 00:08:46;;;;;;;0.00;0.00;;;;;;;16.14;65.83;101354.72;2090984;28;20060;-70
2022/11/19 00:09:48;;;;;;;0.00;0.00;;;;;;;16.15;65.92;101359.03;2088693;28;20057;-70
2022/11/19 00:10:50;;;;;;;0.00;0.00;;;;;;;16.14;65.82;101357.44;2091940;28;20071;-70
2022/11/19 00:13:13;;;;;;;;;;;;;;;15.90;66.31;101357.81;2093621;28;20083;-70
2022/11/19 00:14:15;;;;;;;0.00;0.00;;;;;;;16.02;66.20;101367.72;2088750;28;19925;-70
2022/11/19 00:15:18;;;;;;;0.00;0.00;;;;;;;16.07;65.81;101373.69;2092104;28;20045;-70
2022/11/19 00:16:20;;;;;;;0.00;0.00;;;;;;;16.08;65.93;101367.06;2090456;28;20053;-70
2022/11/19 00:17:22;;;;;;;0.00;0.00;;;;;;;16.09;65.74;101365.13;2091344;28;20044;-70
2022/11/19 00:18:24;;;;;;;0.03;0.03;;;;;;;16.02;65.69;101365.81;2092212;28;20063;-71
2022/11/19 00:19:28;;;;;;;0.00;0.00;;;;;;;16.11;65.70;101374.50;2089586;28;20057;-71
2022/11/19 00:20:32;;;;;;;0.00;0.00;;;;;;;16.10;65.87;101370.22;2087188;28;20060;-70
2022/11/19 00:21:34;;;;;;;0.00;0.00;;;;;;;16.10;65.65;101377.59;2089112;28;20057;-71
2022/11/19 00:22:37;;;;;;;0.00;0.00;;;;;;;16.09;65.63;101368.63;2090378;28;20051;-71
2022/11/19 00:23:39;;;;;;;0.00;0.00;;;;;;;16.10;65.77;101372.94;2090440;28;20435;-70
2022/11/19 00:24:42;;;;;;;0.00;0.00;;;;;;;16.10;65.77;101375.66;2089634;28;20041;-71
2022/11/19 00:25:43;;;;;;;0.00;0.00;;;;;;;16.09;65.83;101368.63;2089751;28;21049;-71
2022/11/19 00:26:46;;;;;;;0.00;0.00;;;;;;;16.10;65.61;101378.41;2087251;28;20496;-70
2022/11/19 00:27:48;;;;;;;0.00;0.00;;;;;;;16.09;65.40;101376.81;2080979;28;20421;-71
2022/11/19 00:28:51;;;;;;;0.00;0.00;;;;;;;16.09;65.45;101381.47;2088581;28;20049;-71
2022/11/19 00:29:53;;;;;;;0.00;0.00;;;;;;;16.09;65.62;101384.97;2089720;28;20064;-70
2022/11/19 00:31:00;;;;;;;0.00;0.00;;;;;;;16.09;65.54;101374.06;2089374;28;20056;-70
2022/11/19 00:32:02;;;;;;;0.00;0.00;;;;;;;16.09;65.68;101379.53;2088077;28;20049;-70
2022/11/19 00:33:05;;;;;;;0.00;0.00;;;;;;;16.09;65.62;101370.59;2090001;28;20056;-70
2022/11/19 00:34:07;;;;;;;0.00;0.00;;;;;;;16.08;65.42;101380.69;2089843;28;20684;-70
2022/11/19 00:35:11;;;;;;;0.00;0.00;;;;;;;16.09;65.46;101393.16;2089383;28;20051;-70
2022/11/19 00:36:14;;;;;;;0.00;0.00;;;;;;;16.09;65.46;101382.25;2090703;28;20053;-70
2022/11/19 00:37:16;;;;;;;0.00;0.00;;;;;;;16.08;65.37;101380.69;2090474;28;20059;-69
2022/11/19 00:38:18;;;;;;;0.00;0.00;;;;;;;16.08;65.55;101380.69;2091062;28;20081;-70
2022/11/19 00:39:21;;;;;;;0.00;0.00;;;;;;;16.07;65.42;101378.31;2090309;28;20049;-71
2022/11/19 00:40:23;;;;;;;0.00;0.00;;;;;;;16.08;65.32;101380.69;2087978;28;20099;-70
2022/11/19 00:41:26;;;;;;;0.00;0.00;;;;;;;16.06;65.36;101379.50;2093409;28;20508;-70
2022/11/19 00:42:28;;;;;;;0.00;0.00;;;;;;;16.07;65.22;101384.56;2090342;28;20052;-70
2022/11/19 00:43:49;;;;;;;0.00;0.00;;;;;;;16.08;65.13;101383.41;2091085;28;20550;-70
2022/11/19 00:44:51;;;;;;;0.00;0.00;;;;;;;16.04;65.37;101389.94;2089737;28;20508;-68
2022/11/19 00:45:53;;;;;;;0.00;0.00;;;;;;;16.06;65.26;101382.97;2090024;28;20045;-69
2022/11/19 00:46:55;;;;;;;0.00;0.00;;;;;;;16.07;65.24;101390.03;2088197;28;20053;-70
2022/11/19 00:47:58;;;;;;;0.00;0.00;;;;;;;16.06;65.09;101390.38;2090203;28;20052;-70
2022/11/19 00:49:00;;;;;;;0.00;0.00;;;;;;;16.07;65.22;101390.03;2090130;28;20076;-71
2022/11/19 00:50:03;;;;;;;0.00;0.00;;;;;;;16.08;65.13;101397.03;2088509;28;20045;-70
2022/11/19 00:51:07;;;;;;;0.00;0.00;;;;;;;16.07;65.07;101395.47;2087852;28;20084;-71
2022/11/19 00:52:10;;;;;;;0.00;0.00;;;;;;;16.06;65.16;101395.84;2088786;28;20076;-68
2022/11/19 00:53:11;;;;;;;0.00;0.00;;;;;;;16.07;65.11;101390.03;2089888;28;20405;-69
2022/11/19 00:54:14;;;;;;;0.00;0.00;;;;;;;16.07;65.07;101386.50;2089698;28;20060;-69
2022/11/19 00:55:16;;;;;;;0.00;0.00;;;;;;;16.05;65.18;101395.03;2090470;28;20424;-70
2022/11/19 00:56:20;;;;;;;0.00;0.00;;;;;;;16.01;65.01;101396.13;2089108;28;20056;-70
2022/11/19 00:57:22;;;;;;;0.00;0.00;;;;;;;16.05;65.13;101408.66;2083829;28;20081;-70
2022/11/19 00:58:25;;;;;;;0.00;0.00;;;;;;;16.05;64.89;101408.66;2089498;28;20049;-70
2022/11/19 00:59:28;;;;;;;0.00;0.00;;;;;;;16.05;64.99;101408.66;2089617;28;20044;-70
2022/11/19 01:00:29;;;;;;;0.00;0.00;;;;;;;16.06;64.98;101412.19;2089376;28;20052;-70
2022/11/19 01:01:32;;;;;;;0.00;0.00;;;;;;;16.05;64.84;101410.59;2080448;28;20056;-70
2022/11/19 01:02:34;;;;;;;0.00;0.00;;;;;;;16.05;64.87;101416.81;2080889;28;20208;-70
2022/11/19 01:03:38;;;;;;;0.00;0.00;;;;;;;16.05;64.89;101419.56;2087991;28;20071;-70
2022/11/19 01:04:40;;;;;;;0.00;0.00;;;;;;;16.06;64.88;101423.84;2089348;28;20052;-70
2022/11/19 01:05:42;;;;;;;0.00;0.00;;;;;;;16.05;64.71;101416.03;2088876;28;20080;-70
2022/11/19 01:06:46;;;;;;;0.00;0.00;;;;;;;16.05;64.94;101416.81;2087740;28;20068;-70
2022/11/19 01:07:48;;;;;;;0.00;0.00;;;;;;;16.04;64.68;101418.00;2090391;28;20052;-70
2022/11/19 01:08:52;;;;;;;0.00;0.00;;;;;;;15.98;64.62;101408.53;2090051;28;20045;-70
2022/11/19 01:09:54;;;;;;;0.00;0.00;;;;;;;16.04;64.71;101428.09;2092202;28;20052;-70
2022/11/19 01:11:04;;;;;;;0.00;0.00;;;;;;;16.01;64.75;101424.16;2090111;28;20060;-70
2022/11/19 01:12:07;;;;;;;0.00;0.00;;;;;;;16.01;65.00;101423.38;2088722;28;20045;-70
2022/11/19 01:14:30;;;;;;;0.00;0.00;;;;;;;15.99;64.65;101425.66;2088528;28;20060;-70
2022/11/19 01:15:32;;;;;;;0.00;0.00;;;;;;;16.01;64.69;101424.16;2090142;28;20539;-70
2022/11/19 01:16:36;;;;;;;0.00;0.00;;;;;;;16.01;64.56;101426.09;2089123;28;20337;-69
2022/11/19 01:17:38;;;;;;;0.00;0.00;;;;;;;16.01;64.42;101429.63;2089338;28;20053;-70
2022/11/19 01:18:42;;;;;;;0.00;0.00;;;;;;;16.02;64.63;101431.19;2088944;28;20523;-70
2022/11/19 01:19:44;;;;;;;0.00;0.00;;;;;;;15.99;64.53;101429.19;2091099;28;20518;-70
2022/11/19 01:20:47;;;;;;;0.00;0.00;;;;;;;16.01;64.41;101437.78;2089806;28;20080;-70
2022/11/19 01:21:51;;;;;;;0.00;0.00;;;;;;;16.00;64.19;101430.75;2090467;28;20041;-69
2022/11/19 01:22:53;;;;;;;0.00;0.00;;;;;;;16.01;64.49;101443.22;2090500;28;20045;-70
2022/11/19 01:23:57;;;;;;;0.00;0.00;;;;;;;16.02;64.39;101442.06;2090193;28;20049;-70
2022/11/19 01:24:59;;;;;;;0.00;0.00;;;;;;;16.00;64.29;101449.81;2087822;28;20519;-69
2022/11/19 01:26:02;;;;;;;0.00;0.00;;;;;;;16.02;64.26;101452.97;2088732;28;20076;-69
2022/11/19 01:27:04;;;;;;;0.00;0.00;;;;;;;16.01;64.32;101445.16;2090336;28;20048;-69
2022/11/19 01:28:06;;;;;;;0.00;0.00;;;;;;;16.00;64.26;101452.53;2088498;28;20264;-70
2022/11/19 01:29:09;;;;;;;0.00;0.00;;;;;;;16.00;64.43;101452.53;2089602;28;20076;-70
2022/11/19 01:30:11;;;;;;;0.00;0.00;;;;;;;16.00;64.21;101454.47;2089594;28;20048;-70
2022/11/19 01:31:16;;;;;;;0.00;0.00;;;;;;;16.00;64.34;101449.81;2088487;28;20420;-70
2022/11/19 01:32:17;;;;;;;0.00;0.00;;;;;;;15.99;64.19;101448.25;2088972;28;20078;-70
2022/11/19 01:33:21;;;;;;;0.00;0.00;;;;;;;16.00;64.19;101449.00;2090784;28;20139;-70
2022/11/19 01:34:24;;;;;;;0.00;0.00;;;;;;;15.99;64.07;101453.69;2091796;28;20508;-69
2022/11/19 01:35:25;;;;;;;0.00;0.00;;;;;;;16.00;64.09;101459.91;2092406;28;20435;-70
2022/11/19 01:36:30;;;;;;;0.00;0.00;;;;;;;16.01;64.09;101456.06;2088838;28;20052;-69
2022/11/19 01:37:33;;;;;;;0.05;0.05;;;;;;;15.99;64.03;101456.41;2089893;28;20356;-69
2022/11/19 01:38:36;;;;;;;0.00;0.00;;;;;;;15.98;63.92;101457.53;2090271;28;20498;-70
2022/11/19 01:39:38;;;;;;;0.00;0.00;;;;;;;16.00;64.01;101473.53;2090386;28;20068;-70
2022/11/19 01:40:42;;;;;;;0.00;0.00;;;;;;;15.99;63.76;101463.78;2088023;28;20088;-70
2022/11/19 01:41:45;;;;;;;0.00;0.00;;;;;;;15.98;64.10;101473.88;2088123;28;20063;-69
2022/11/19 01:42:49;;;;;;;0.00;0.00;;;;;;;15.98;64.01;101470.41;2090683;28;20064;-69
2022/11/19 01:43:54;;;;;;;0.00;0.00;;;;;;;15.99;63.99;101463.78;2089424;28;20091;-69
2022/11/19 01:45:00;;;;;;;0.00;0.00;;;;;;;15.97;63.93;101466.09;2087811;28;20064;-70
2022/11/19 01:46:03;;;;;;;0.00;0.00;;;;;;;15.97;63.86;101474.25;2090252;28;20115;-70
2022/11/19 01:47:05;;;;;;;0.00;0.00;;;;;;;15.97;64.04;101479.69;2088997;28;20449;-69
2022/11/19 01:48:13;;;;;;;0.00;0.00;;;;;;;15.98;63.94;101476.63;2081836;28;20099;-69
2022/11/19 01:49:18;;;;;;;0.00;0.00;;;;;;;15.97;63.76;101479.69;2090198;28;20045;-70
2022/11/19 01:50:22;;;;;;;0.00;0.00;;;;;;;15.96;63.80;101475.41;2089657;28;20048;-70
2022/11/19 01:51:29;;;;;;;0.00;0.00;;;;;;;15.97;63.72;101485.16;2088206;28;20048;-70
2022/11/19 01:52:31;;;;;;;0.00;0.00;;;;;;;15.95;63.79;101485.50;2088142;28;20049;-69
2022/11/19 01:53:36;;;;;;;0.00;0.00;;;;;;;15.94;63.86;101473.03;2091423;28;20173;-69
2022/11/19 01:54:43;;;;;;;0.00;0.00;;;;;;;15.95;63.82;101480.06;2090122;28;20052;-70
2022/11/19 01:55:46;;;;;;;0.00;0.00;;;;;;;15.95;63.81;101488.22;2089803;28;20388;-70
2022/11/19 01:56:48;;;;;;;0.00;0.00;;;;;;;15.95;63.66;101485.50;2088391;28;20048;-70
2022/11/19 01:57:55;;;;;;;0.00;0.00;;;;;;;15.93;63.80;101487.81;2088834;28;20048;-70
2022/11/19 01:59:02;;;;;;;0.00;0.00;;;;;;;15.94;63.55;101483.94;2089194;28;20057;-70
2022/11/19 02:00:06;;;;;;;0.00;0.00;;;;;;;15.93;63.57;101493.28;2090127;28;20040;-70
2022/11/19 02:01:10;;;;;;;0.00;0.00;;;;;;;15.94;63.71;101483.94;2089091;28;20087;-70
2022/11/19 02:02:12;;;;;;;0.00;0.00;;;;;;;15.94;63.79;101483.16;2087887;28;20075;-70
2022/11/19 02:03:16;;;;;;;0.05;0.05;;;;;;;15.94;63.58;101485.88;2090787;28;20151;-70
2022/11/19 02:04:19;;;;;;;0.00;0.00;;;;;;;15.94;63.63;101491.31;2088373;28;20045;-70
2022/11/19 02:05:23;;;;;;;0.00;0.00;;;;;;;15.94;63.54;101492.13;2090766;28;20079;-69
2022/11/19 02:06:25;;;;;;;0.00;0.00;;;;;;;15.92;63.53;101491.69;2090338;28;20057;-71
2022/11/19 02:07:31;;;;;;;0.20;0.20;;;;;;;15.94;63.56;101494.03;2092198;28;20072;-71
2022/11/19 02:08:40;;;;;;;0.00;0.00;;;;;;;15.91;63.48;101487.38;2091172;28;20493;-71
2022/11/19 02:09:44;;;;;;;0.00;0.00;;;;;;;15.93;63.63;101487.03;2092282;28;20056;-70
2022/11/19 02:10:53;;;;;;;0.00;0.00;;;;;;;15.92;63.49;101490.91;2091066;28;20425;-71
2022/11/19 02:12:19;;;;;;;0.00;0.00;;;;;;;15.86;63.63;101509.47;2091528;28;20423;-71
2022/11/19 02:13:29;;;;;;;0.00;0.00;;;;;;;15.87;63.57;101499.38;2089243;28;20053;-71
2022/11/19 02:14:50;;;;;;;0.00;0.00;;;;;;;15.86;63.63;101506.75;2091086;28;20044;-71
2022/11/19 02:16:08;;;;;;;0.00;0.00;;;;;;;15.84;63.50;101511.75;2090202;28;20092;-71
2022/11/19 02:17:19;;;;;;;0.00;0.00;;;;;;;15.84;63.48;101509.03;2088950;28;20045;-70
2022/11/19 02:18:37;;;;;;;0.00;0.00;;;;;;;15.83;63.34;101514.84;2085099;28;20128;-71
2022/11/19 02:20:14;;;;;;;0.00;0.00;;;;;;;15.75;63.65;101519.34;2090159;28;20084;-71
2022/11/19 02:21:27;;;;;;;0.03;0.03;;;;;;;15.80;63.55;101521.78;2091663;28;20056;-69
2022/11/19 02:23:01;;;;;;;0.10;0.10;;;;;;;15.79;63.40;101514.75;2090551;28;20085;-70
2022/11/19 02:24:40;;;;;;;0.00;0.00;;;;;;;15.71;63.69;101523.16;2093088;28;20052;-70
2022/11/19 02:26:04;;;;;;;0.00;0.00;;;;;;;15.71;63.57;101523.94;2092916;28;20060;-70
2022/11/19 02:27:41;;;;;;;0.00;0.00;;;;;;;15.69;63.55;101523.50;2091812;28;20060;-69
2022/11/19 02:28:46;;;;;;;0.00;0.00;;;;;;;15.75;63.47;101518.56;2080458;28;20059;-69
2022/11/19 02:30:04;;;;;;;0.00;0.00;;;;;;;15.72;63.38;101530.16;2091788;28;20824;-69
2022/11/19 02:31:11;;;;;;;0.08;0.08;;;;;;;15.77;63.38;101527.97;2090116;28;20124;-70
2022/11/19 02:32:18;;;;;;;0.00;0.00;;;;;;;15.78;63.19;101526.81;2089275;28;20048;-70
2022/11/19 02:33:25;;;;;;;0.00;0.00;;;;;;;15.79;63.20;101535.78;2091955;28;20072;-69
2022/11/19 02:34:30;;;;;;;0.00;0.00;;;;;;;15.79;63.18;101528.38;2092103;28;20781;-70
2022/11/19 02:35:43;;;;;;;0.10;0.10;;;;;;;15.77;63.32;101544.28;2089655;28;20049;-70
2022/11/19 02:36:52;;;;;;;0.00;0.00;;;;;;;15.77;63.08;101533.41;2091774;28;20095;-69
2022/11/19 02:38:00;;;;;;;0.00;0.00;;;;;;;15.76;63.16;101537.25;2091373;28;20088;-71
2022/11/19 02:39:08;;;;;;;0.00;0.00;;;;;;;15.77;63.20;101533.41;2089951;28;20057;-70
2022/11/19 02:40:18;;;;;;;0.00;0.00;;;;;;;15.76;63.31;101531.03;2090337;28;20455;-70
2022/11/19 02:41:34;;;;;;;0.00;0.00;;;;;;;15.76;63.21;101523.66;2089412;28;20049;-70
2022/11/19 02:42:44;;;;;;;0.00;0.00;;;;;;;15.74;63.05;101528.69;2091773;28;20059;-70
2022/11/19 02:43:49;;;;;;;0.00;0.00;;;;;;;15.76;63.23;101542.69;2089649;28;20053;-69
2022/11/19 02:45:01;;;;;;;0.00;0.00;;;;;;;15.78;62.96;101542.34;2091321;28;20120;-70
2022/11/19 02:46:09;;;;;;;0.00;0.00;;;;;;;15.75;63.16;101535.69;2089376;28;20048;-70
2022/11/19 02:47:15;;;;;;;0.05;0.05;;;;;;;15.77;63.03;101543.50;2091956;28;20084;-70
2022/11/19 02:48:22;;;;;;;0.00;0.00;;;;;;;15.74;62.90;101533.31;2089074;28;20056;-70
2022/11/19 02:49:28;;;;;;;0.00;0.00;;;;;;;15.75;62.93;101541.13;2091290;28;20048;-71
2022/11/19 02:50:35;;;;;;;0.00;0.00;;;;;;;15.77;62.89;101544.28;2091016;28;20065;-70
2022/11/19 02:51:37;;;;;;;0.00;0.00;;;;;;;15.77;63.08;101544.28;2090890;28;20059;-70
2022/11/19 02:52:42;;;;;;;0.00;0.00;;;;;;;15.78;62.82;101545.88;2091005;28;20061;-70
2022/11/19 02:53:46;;;;;;;0.00;0.00;;;;;;;15.79;62.75;101546.66;2090742;28;20052;-71
2022/11/19 02:54:48;;;;;;;0.00;0.00;;;;;;;15.77;62.75;101547.03;2091112;28;20056;-71
2022/11/19 02:57:10;;;;;;;0.00;0.00;;;;;;;15.76;62.75;101542.69;2090341;28;20056;-71
2022/11/19 03:05:16;;;;;;;0.00;0.00;;;;;;;15.70;62.71;101549.59;2089413;28;20049;-69
2022/11/19 03:06:22;;;;;;;0.00;0.00;;;;;;;15.72;62.70;101558.19;2091412;28;20044;-68
2022/11/19 03:07:25;;;;;;;0.00;0.00;;;;;;;15.71;62.61;101544.94;2089606;28;20044;-70
2022/11/19 03:08:27;;;;;;;0.00;0.00;;;;;;;15.73;62.65;101548.88;2089652;28;20110;-70
2022/11/19 03:09:34;;;;;;;0.00;0.00;;;;;;;15.74;62.56;101552.38;2089740;28;20060;-70
2022/11/19 03:10:44;;;;;;;0.00;0.00;;;;;;;15.74;62.60;101541.50;2091715;28;20690;-70
2022/11/19 03:11:54;;;;;;;0.00;0.00;;;;;;;15.72;62.58;101551.94;2088665;28;20060;-70
2022/11/19 03:16:40;;;;;;;0.00;0.00;;;;;;;15.70;62.50;101555.03;2092375;28;20087;-70
2022/11/19 03:17:21;;;;;;;0.00;0.00;;;;;;;15.68;62.70;101559.25;2045855;28;20109;-70
2022/11/19 03:18:30;;;;;;;0.00;0.00;;;;;;;15.68;62.48;101559.25;2086378;28;20056;-71
2022/11/19 03:19:40;;;;;;;0.00;0.00;;;;;;;15.68;62.66;101565.47;2090472;28;20084;-71
2022/11/19 03:20:48;;;;;;;0.08;0.08;;;;;;;15.68;62.54;101567.44;2088904;28;20523;-71
2022/11/19 03:21:56;;;;;;;0.00;0.00;;;;;;;15.69;62.33;101560.81;2091359;28;20713;-71
2022/11/19 03:23:02;;;;;;;0.00;0.00;;;;;;;15.69;62.26;101558.91;2089837;28;20088;-71
2022/11/19 03:24:11;;;;;;;0.00;0.00;;;;;;;15.70;62.36;101560.47;2088889;28;20037;-71
2022/11/19 03:25:20;;;;;;;0.00;0.00;;;;;;;15.71;62.42;101564.00;2090039;28;20093;-71
2022/11/19 03:26:27;;;;;;;0.10;0.10;;;;;;;15.70;62.25;101562.41;2089017;28;20645;-70
2022/11/19 03:27:35;;;;;;;0.00;0.00;;;;;;;15.70;62.26;101568.63;2091662;28;20084;-70
2022/11/19 03:28:38;;;;;;;0.00;0.00;;;;;;;15.69;62.20;101569.78;2091173;28;20053;-70
2022/11/19 03:29:46;;;;;;;0.00;0.00;;;;;;;15.70;62.17;101571.38;2090377;28;20064;-70
2022/11/19 03:30:50;;;;;;;0.00;0.00;;;;;;;15.70;62.25;101568.63;2089827;28;20045;-70
2022/11/19 03:31:58;;;;;;;0.00;0.00;;;;;;;15.71;62.15;101566.72;2089386;28;20049;-70
2022/11/19 03:33:06;;;;;;;0.00;0.00;;;;;;;15.70;62.09;101576.81;2090356;28;20079;-70
2022/11/19 03:34:12;;;;;;;0.00;0.00;;;;;;;15.70;62.05;101567.84;2092445;28;20056;-71
2022/11/19 03:35:17;;;;;;;0.00;0.00;;;;;;;15.70;61.72;101576.81;2092525;28;20607;-70
2022/11/19 03:36:29;;;;;;;0.00;0.00;;;;;;;15.69;61.88;101577.16;2092382;28;20052;-70
2022/11/19 03:37:33;;;;;;;0.00;0.00;;;;;;;15.67;61.90;101576.72;2090529;28;20088;-70
2022/11/19 03:38:41;;;;;;;0.00;0.00;;;;;;;15.70;61.95;101584.19;2091435;28;20047;-70
2022/11/19 03:39:46;;;;;;;0.00;0.00;;;;;;;15.70;61.94;101586.91;2089931;28;20045;-70
2022/11/19 03:40:50;;;;;;;0.00;0.00;;;;;;;15.70;61.63;101586.91;2088887;28;20060;-70
2022/11/19 03:41:55;;;;;;;0.00;0.00;;;;;;;15.71;61.86;101580.31;2089691;28;20056;-70
2022/11/19 03:43:01;;;;;;;0.00;0.00;;;;;;;15.69;61.60;101580.69;2091385;28;20063;-71
2022/11/19 03:44:07;;;;;;;0.00;0.00;;;;;;;15.70;61.73;101584.19;2092960;28;20045;-70
2022/11/19 03:45:14;;;;;;;0.00;0.00;;;;;;;15.67;61.67;101580.25;2092017;28;20053;-70
2022/11/19 03:46:18;;;;;;;0.00;0.00;;;;;;;15.70;61.59;101592.34;2093248;28;20049;-70
2022/11/19 03:47:26;;;;;;;0.00;0.00;;;;;;;15.66;61.41;101586.84;2089542;28;20051;-70
2022/11/19 03:48:30;;;;;;;0.00;0.00;;;;;;;15.69;61.66;101597.03;2091852;28;20052;-69
2022/11/19 03:49:37;;;;;;;0.00;0.00;;;;;;;15.67;61.39;101591.13;2090213;28;20051;-70
2022/11/19 03:50:48;;;;;;;0.00;0.00;;;;;;;15.65;61.60;101593.41;2090294;28;20500;-70
2022/11/19 03:51:55;;;;;;;0.00;0.00;;;;;;;15.67;61.44;101599.31;2088692;28;20053;-70
2022/11/19 03:52:59;;;;;;;0.00;0.00;;;;;;;15.68;61.58;101606.31;2088956;28;20056;-71
2022/11/19 03:54:05;;;;;;;0.00;0.00;;;;;;;15.65;61.30;101596.13;2089498;28;20092;-69
2022/11/19 03:55:08;;;;;;;0.00;0.00;;;;;;;15.69;61.42;101607.13;2088694;28;20059;-71
2022/11/19 03:56:13;;;;;;;0.00;0.00;;;;;;;15.68;61.32;101611.75;2091074;28;20083;-71
2022/11/19 03:57:20;;;;;;;0.00;0.00;;;;;;;15.69;61.21;101607.13;2091025;28;20048;-71
2022/11/19 03:58:23;;;;;;;0.00;0.00;;;;;;;15.68;61.25;101611.00;2090946;28;20080;-71
2022/11/19 03:59:27;;;;;;;0.03;0.03;;;;;;;15.69;61.26;101612.56;2089062;28;20066;-71
2022/11/19 04:00:31;;;;;;;0.00;0.00;;;;;;;15.67;61.23;101610.19;2090952;28;20057;-70
2022/11/19 04:01:35;;;;;;;0.00;0.00;;;;;;;15.68;61.09;101608.28;2088875;28;20049;-71
2022/11/19 04:02:37;;;;;;;0.00;0.00;;;;;;;15.68;61.07;101614.47;2090454;28;20056;-71
2022/11/19 04:04:34;;;;;;;0.00;0.00;;;;;;;15.68;61.09;101617.19;2094821;28;20052;-70
2022/11/19 04:05:03;;;;;;;0.00;0.00;;;;;;;15.64;61.29;101610.91;2090174;28;20045;-69
2022/11/19 04:06:06;;;;;;;0.00;0.00;;;;;;;15.66;61.31;101616.78;2089817;28;20056;-69
2022/11/19 04:07:13;;;;;;;0.00;0.00;;;;;;;15.67;61.06;101615.63;2090946;28;20065;-69
2022/11/19 04:08:16;;;;;;;0.00;0.00;;;;;;;15.67;61.29;101620.28;2091861;28;20123;-70
2022/11/19 04:09:17;;;;;;;0.00;0.00;;;;;;;15.67;60.94;101623.00;2089457;28;20512;-70
2022/11/19 04:10:21;;;;;;;0.00;0.00;;;;;;;15.67;61.16;101637.41;2088817;28;20052;-70
2022/11/19 04:11:23;;;;;;;0.00;0.00;;;;;;;15.67;61.20;101636.63;2089602;28;20064;-71
2022/11/19 04:12:25;;;;;;;0.00;0.00;;;;;;;15.67;60.86;101629.25;2089231;28;20052;-70
2022/11/19 04:13:27;;;;;;;0.00;0.00;;;;;;;15.68;60.98;101638.22;2092448;28;20053;-69
2022/11/19 04:14:29;;;;;;;0.00;0.00;;;;;;;15.66;60.96;101627.69;2089605;28;20075;-69
2022/11/19 04:15:31;;;;;;;0.00;0.00;;;;;;;15.67;61.03;101640.13;2089886;28;20060;-70
2022/11/19 04:16:34;;;;;;;0.00;0.00;;;;;;;15.68;60.91;101635.50;2087386;28;20159;-69
2022/11/19 04:17:36;;;;;;;0.00;0.00;;;;;;;15.66;60.79;101638.56;2091018;28;20052;-70
2022/11/19 04:18:38;;;;;;;0.00;0.00;;;;;;;15.68;60.96;101643.66;2090106;28;20061;-69
2022/11/19 04:19:42;;;;;;;0.03;0.03;;;;;;;15.66;60.79;101641.28;2090080;28;20060;-70
2022/11/19 04:20:45;;;;;;;0.00;0.00;;;;;;;15.67;60.91;101642.84;2090386;28;20633;-70
2022/11/19 04:21:47;;;;;;;0.00;0.00;;;;;;;15.67;60.73;101640.13;2088972;28;20053;-70
2022/11/19 04:22:51;;;;;;;0.00;0.00;;;;;;;15.67;60.70;101645.59;2089753;28;20080;-70
2022/11/19 04:23:53;;;;;;;0.00;0.00;;;;;;;15.66;60.73;101645.94;2090350;28;20056;-70
2022/11/19 04:24:55;;;;;;;0.00;0.00;;;;;;;15.66;60.67;101641.28;2088593;28;20420;-69
2022/11/19 04:25:57;;;;;;;0.00;0.00;;;;;;;15.67;60.63;101652.94;2089546;28;20060;-70
2022/11/19 04:27:00;;;;;;;0.00;0.00;;;;;;;15.67;60.78;101650.22;2088886;28;20048;-69
2022/11/19 04:28:02;;;;;;;0.03;0.03;;;;;;;15.66;60.51;101649.47;2088603;28;20052;-70
2022/11/19 04:29:05;;;;;;;0.00;0.00;;;;;;;15.67;60.60;101648.31;2088817;28;20052;-70
2022/11/19 04:30:09;;;;;;;0.00;0.00;;;;;;;15.68;60.51;101649.09;2090805;28;20057;-70
2022/11/19 04:31:11;;;;;;;0.00;0.00;;;;;;;15.67;60.57;101659.19;2090428;28;20056;-70
2022/11/19 04:32:19;;;;;;;0.00;0.00;;;;;;;15.65;60.35;101652.53;2089638;28;20084;-70
2022/11/19 04:33:21;;;;;;;0.00;0.00;;;;;;;15.65;60.58;101655.25;2089544;28;20075;-70
2022/11/19 04:34:24;;;;;;;0.00;0.00;;;;;;;15.66;60.53;101657.63;2093275;28;20052;-69
2022/11/19 04:35:27;;;;;;;0.00;0.00;;;;;;;15.67;60.64;101658.41;2089741;28;20087;-70
2022/11/19 04:36:29;;;;;;;0.00;0.00;;;;;;;15.65;60.37;101658.75;2090982;28;20057;-69
2022/11/19 04:37:31;;;;;;;0.00;0.00;;;;;;;15.63;60.57;101661.06;2089642;28;20045;-69
2022/11/19 04:38:34;;;;;;;0.00;0.00;;;;;;;15.65;60.47;101661.47;2087657;28;20660;-69
2022/11/19 04:39:36;;;;;;;0.00;0.00;;;;;;;15.65;60.36;101666.91;2091062;28;20049;-70
2022/11/19 04:40:38;;;;;;;0.00;0.00;;;;;;;15.65;60.18;101666.91;2090245;28;20100;-70
2022/11/19 04:41:41;;;;;;;0.10;0.10;;;;;;;15.65;60.27;101666.91;2090623;28;20128;-69
2022/11/19 04:42:43;;;;;;;0.00;0.00;;;;;;;15.65;60.27;101672.34;2090393;28;20092;-69
2022/11/19 04:43:45;;;;;;;0.00;0.00;;;;;;;15.65;60.32;101661.47;2089167;28;20049;-69
2022/11/19 04:44:48;;;;;;;0.00;0.00;;;;;;;15.64;60.14;101670.78;2092225;28;20068;-70
2022/11/19 04:45:49;;;;;;;0.00;0.00;;;;;;;15.65;60.15;101672.34;2090540;28;20599;-69
2022/11/19 04:46:52;;;;;;;0.00;0.00;;;;;;;15.65;60.08;101666.91;2089471;28;20787;-69
2022/11/19 04:47:54;;;;;;;0.00;0.00;;;;;;;15.66;60.29;101673.16;2089305;28;20082;-69
2022/11/19 04:48:57;;;;;;;0.00;0.00;;;;;;;15.64;60.28;101670.78;2081340;28;20057;-70
2022/11/19 04:49:59;;;;;;;0.00;0.00;;;;;;;15.64;60.16;101673.53;2088243;28;20561;-70
2022/11/19 04:51:03;;;;;;;0.00;0.00;;;;;;;15.64;59.90;101670.78;2088391;28;20409;-70
2022/11/19 04:52:05;;;;;;;0.10;0.10;;;;;;;15.64;60.28;101668.06;2088304;28;20060;-71
2022/11/19 04:53:07;;;;;;;0.00;0.00;;;;;;;15.64;59.95;101676.25;2089015;28;20056;-71
2022/11/19 04:54:11;;;;;;;0.00;0.00;;;;;;;15.64;59.96;101670.00;2089711;28;20084;-70
2022/11/19 04:55:13;;;;;;;0.00;0.00;;;;;;;15.60;60.00;101660.97;2087930;28;20079;-70
2022/11/19 04:56:16;;;;;;;0.00;0.00;;;;;;;15.63;59.88;101669.22;2090621;28;20052;-70
2022/11/19 04:57:18;;;;;;;0.00;0.00;;;;;;;15.63;60.05;101676.59;2088983;28;20057;-70
2022/11/19 04:58:21;;;;;;;0.00;0.00;;;;;;;15.62;60.01;101673.06;2091209;28;20056;-70
2022/11/19 04:59:23;;;;;;;0.03;0.03;;;;;;;15.63;59.83;101674.66;2090596;28;20052;-70
2022/11/19 05:00:26;;;;;;;0.00;0.00;;;;;;;15.62;59.78;101672.31;2089251;28;20057;-70
2022/11/19 05:01:28;;;;;;;0.00;0.00;;;;;;;15.62;59.89;101675.78;2090185;28;20080;-69
2022/11/19 05:02:31;;;;;;;0.00;0.00;;;;;;;15.61;59.92;101679.66;2088341;28;20053;-69
2022/11/19 05:03:33;;;;;;;0.00;0.00;;;;;;;15.62;59.96;101678.50;2090418;28;20077;-70
2022/11/19 05:04:35;;;;;;;0.00;0.00;;;;;;;15.62;59.94;101675.78;2088446;28;20052;-70
2022/11/19 05:05:37;;;;;;;0.00;0.00;;;;;;;15.62;59.59;101673.06;2089398;28;20048;-70
2022/11/19 05:06:41;;;;;;;0.00;0.00;;;;;;;15.62;59.68;101675.78;2087857;28;20053;-70
2022/11/19 05:07:43;;;;;;;0.00;0.00;;;;;;;15.62;59.66;101685.91;2089049;28;20044;-70
2022/11/19 05:08:46;;;;;;;0.00;0.00;;;;;;;15.61;59.64;101676.94;2088123;28;20056;-69
2022/11/19 05:09:47;;;;;;;0.00;0.00;;;;;;;15.60;59.66;101680.78;2089226;28;20068;-69
2022/11/19 05:10:50;;;;;;;0.00;0.00;;;;;;;15.60;59.57;101678.06;2089358;28;20045;-69
2022/11/19 05:11:52;;;;;;;0.00;0.00;;;;;;;15.61;59.63;101679.66;2092327;28;20407;-69
2022/11/19 05:12:55;;;;;;;0.00;0.00;;;;;;;15.60;59.63;101686.25;2092917;28;20059;-70
2022/11/19 05:13:57;;;;;;;0.00;0.00;;;;;;;15.58;59.71;101674.94;2088864;28;20520;-70
2022/11/19 05:14:59;;;;;;;0.00;0.00;;;;;;;15.60;59.67;101675.34;2087509;28;20520;-70
2022/11/19 05:16:01;;;;;;;0.00;0.00;;;;;;;15.60;59.43;101683.50;2089720;28;20049;-69